MV Melite — V7TM5 — position and weather

sailwx.info

Track history (hours):
 
Tides and Currents Weather Stations Pressure Air Temp Water Temp Dewpoint Dewpoint Depression Visibility Wind Speed Wind Dir Waves Ship Positions

MV Melite

Last reported at 2016-Sep-04 16:26 UTC. Time now 2016-Sep-25 02:04 UTC.
Position N 38°08' E 016°47'.
Warning: this ship's position is 20 days out of date.

Length 225 m; draft 12.4 m.

Type: Cargo ship. MMSI: 538003832.

Date/timePositionNaut miles runAvg speedWind from/ knotsBaromVisibWave heightAir tempDewpointWater temp
2016-Sep-04 16:26N 38°08' E 016°47'3711.5
2016-Sep-04 13:16N 37°40' E 016°17'911.6
2016-Sep-04 12:32N 37°33' E 016°10'1311.8
2016-Sep-04 11:27N 37°23' E 016°00'1112.1
2016-Sep-04 10:33N 37°15' E 015°51'6210.3
2016-Sep-04 04:31N 36°36' E 014°50'1411.1
2016-Sep-04 03:15N 36°39' E 014°33'4511.1
2016-Sep-03 23:12N 36°47' E 013°38'711.0
2016-Sep-03 22:33N 36°49' E 013°29'1111.0
2016-Sep-03 21:33N 36°51' E 013°16'1110.7
2016-Sep-03 20:33N 36°53' E 013°03'1110.9
2016-Sep-03 19:32N 36°54' E 012°49'1310.7
2016-Sep-03 18:21N 36°57' E 012°33'911.2
2016-Sep-03 17:33N 36°59' E 012°22'1111.4
2016-Sep-03 16:33N 37°01' E 012°08'32511.2
2016-Sep-02 11:30N 37°15' E 005°21'3611.1
2016-Sep-02 08:13N 37°14' E 004°35'811.2
2016-Sep-02 07:29N 37°14' E 004°24'3211.0
2016-Sep-02 04:33N 37°14' E 003°44'1111.2
2016-Sep-02 03:32N 37°11' E 003°30'2511.4
2016-Sep-02 01:19N 37°06' E 002°59'910.9
2016-Sep-02 00:28N 37°05' E 002°48'1010.7
2016-Sep-01 23:33N 37°03' E 002°36'7410.6
2016-Sep-01 16:33N 36°51' E 001°04'30110.7
2016-Aug-31 12:21N 36°01' W 005°05'1012.1
2016-Aug-31 11:33N 36°00' W 005°17'12010.8
2016-Aug-31 00:24N 35°06' W 007°29'910.6
2016-Aug-30 23:33N 35°02' W 007°39'1110.8
2016-Aug-30 22:33N 34°56' W 007°50'1210.8
2016-Aug-30 21:28N 34°50' W 008°02'2210.7
2016-Aug-30 19:24N 34°34' W 008°20'910.4
2016-Aug-30 18:33N 34°27' W 008°28'1110.4
2016-Aug-30 17:30N 34°19' W 008°36'1010.1
2016-Aug-30 16:33N 34°12' W 008°44'1010.1
2016-Aug-30 15:33N 34°04' W 008°52'1010.2
2016-Aug-30 14:33N 33°57' W 008°60'1010.3
2016-Aug-30 13:33N 33°49' W 009°08'1110.2
2016-Aug-30 12:29N 33°41' W 009°17'1010.1
2016-Aug-30 11:32N 33°33' W 009°24'5210.4
2016-Aug-30 06:30N 32°53' W 010°04'1010.1
2016-Aug-30 05:30N 32°45' W 010°11'10 9.8
2016-Aug-30 04:31N 32°37' W 010°17'9 9.6
2016-Aug-30 03:32N 32°29' W 010°23'10 9.7
2016-Aug-30 02:32N 32°20' W 010°29'12 9.4
2016-Aug-30 01:15N 32°10' W 010°37'7 9.5
2016-Aug-30 00:31N 32°04' W 010°41'11 9.8
2016-Aug-29 23:26N 31°55' W 010°47'10 9.7
2016-Aug-29 22:27N 31°47' W 010°53'9 9.5
2016-Aug-29 21:32N 31°40' W 010°59'10 9.5
2016-Aug-29 20:32N 31°32' W 011°05'10 9.8
2016-Aug-29 19:33N 31°23' W 011°10'10 9.7
2016-Aug-29 18:33N 31°15' W 011°16'1010.3
2016-Aug-29 17:33N 31°06' W 011°23'1010.2
2016-Aug-29 16:33N 30°58' W 011°29'1010.3
2016-Aug-29 15:33N 30°49' W 011°35'1010.5
2016-Aug-29 14:33N 30°40' W 011°42'1010.3
2016-Aug-29 13:33N 30°31' W 011°48'1010.1
2016-Aug-29 12:33N 30°23' W 011°54'2510.4
2016-Aug-29 10:09N 30°01' W 012°09'610.7
2016-Aug-29 09:33N 29°56' W 012°13'1110.8
2016-Aug-29 08:32N 29°47' W 012°20'1010.3
2016-Aug-29 07:33N 29°38' W 012°26'1010.0
2016-Aug-29 06:33N 29°30' W 012°32'1010.0
2016-Aug-29 05:33N 29°21' W 012°38'1010.3
2016-Aug-29 04:33N 29°12' W 012°44'1110.7
2016-Aug-29 03:33N 29°03' W 012°51'1110.6
2016-Aug-29 02:33N 28°54' W 012°57'1110.4
2016-Aug-29 01:32N 28°45' W 013°03'1010.1
2016-Aug-29 00:33N 28°37' W 013°09'1010.3
2016-Aug-28 23:33N 28°28' W 013°15'1010.3
2016-Aug-28 22:33N 28°19' W 013°22'1010.3
2016-Aug-28 21:33N 28°10' W 013°28'1010.1
2016-Aug-28 20:33N 28°02' W 013°34'1010.2
2016-Aug-28 19:33N 27°53' W 013°40'1010.5
2016-Aug-28 18:33N 27°45' W 013°47'1010.2
2016-Aug-28 17:33N 27°36' W 013°53'10 9.8
2016-Aug-28 16:33N 27°28' W 013°59'10 9.7
2016-Aug-28 15:33N 27°20' W 014°05'10 9.8
2016-Aug-28 14:33N 27°12' W 014°11'10610.6
2016-Aug-28 04:31N 25°44' W 015°18'5110.2
2016-Aug-27 23:33N 25°01' W 015°48'  
Track history (hours):
 
Tides and Currents Weather Stations Pressure Air Temp Water Temp Dewpoint Dewpoint Depression Visibility Wind Speed Wind Dir Waves Ship Positions

MV Melite

Last reported at 2016-Sep-04 16:26 UTC. Time now 2016-Sep-25 02:04 UTC.
Position N 38°08' E 016°47'.
Warning: this ship's position is 20 days out of date.

Length 225 m; draft 12.4 m.

Type: Cargo ship. MMSI: 538003832.

Date/timePositionNaut miles runAvg speedWind from/ knotsBaromVisibWave heightAir tempDewpointWater temp
2016-Sep-04 16:26N 38°08' E 016°47'3711.5
2016-Sep-04 13:16N 37°40' E 016°17'911.6
2016-Sep-04 12:32N 37°33' E 016°10'1311.8
2016-Sep-04 11:27N 37°23' E 016°00'1112.1
2016-Sep-04 10:33N 37°15' E 015°51'6210.3
2016-Sep-04 04:31N 36°36' E 014°50'1411.1
2016-Sep-04 03:15N 36°39' E 014°33'4511.1
2016-Sep-03 23:12N 36°47' E 013°38'711.0
2016-Sep-03 22:33N 36°49' E 013°29'1111.0
2016-Sep-03 21:33N 36°51' E 013°16'1110.7
2016-Sep-03 20:33N 36°53' E 013°03'1110.9
2016-Sep-03 19:32N 36°54' E 012°49'1310.7
2016-Sep-03 18:21N 36°57' E 012°33'911.2
2016-Sep-03 17:33N 36°59' E 012°22'1111.4
2016-Sep-03 16:33N 37°01' E 012°08'32511.2
2016-Sep-02 11:30N 37°15' E 005°21'3611.1
2016-Sep-02 08:13N 37°14' E 004°35'811.2
2016-Sep-02 07:29N 37°14' E 004°24'3211.0
2016-Sep-02 04:33N 37°14' E 003°44'1111.2
2016-Sep-02 03:32N 37°11' E 003°30'2511.4
2016-Sep-02 01:19N 37°06' E 002°59'910.9
2016-Sep-02 00:28N 37°05' E 002°48'1010.7
2016-Sep-01 23:33N 37°03' E 002°36'7410.6
2016-Sep-01 16:33N 36°51' E 001°04'30110.7
2016-Aug-31 12:21N 36°01' W 005°05'1012.1
2016-Aug-31 11:33N 36°00' W 005°17'12010.8
2016-Aug-31 00:24N 35°06' W 007°29'910.6
2016-Aug-30 23:33N 35°02' W 007°39'1110.8
2016-Aug-30 22:33N 34°56' W 007°50'1210.8
2016-Aug-30 21:28N 34°50' W 008°02'2210.7
2016-Aug-30 19:24N 34°34' W 008°20'910.4
2016-Aug-30 18:33N 34°27' W 008°28'1110.4
2016-Aug-30 17:30N 34°19' W 008°36'1010.1
2016-Aug-30 16:33N 34°12' W 008°44'1010.1
2016-Aug-30 15:33N 34°04' W 008°52'1010.2
2016-Aug-30 14:33N 33°57' W 008°60'1010.3
2016-Aug-30 13:33N 33°49' W 009°08'1110.2
2016-Aug-30 12:29N 33°41' W 009°17'1010.1
2016-Aug-30 11:32N 33°33' W 009°24'5210.4
2016-Aug-30 06:30N 32°53' W 010°04'1010.1
2016-Aug-30 05:30N 32°45' W 010°11'10 9.8
2016-Aug-30 04:31N 32°37' W 010°17'9 9.6
2016-Aug-30 03:32N 32°29' W 010°23'10 9.7
2016-Aug-30 02:32N 32°20' W 010°29'12 9.4
2016-Aug-30 01:15N 32°10' W 010°37'7 9.5
2016-Aug-30 00:31N 32°04' W 010°41'11 9.8
2016-Aug-29 23:26N 31°55' W 010°47'10 9.7
2016-Aug-29 22:27N 31°47' W 010°53'9 9.5
2016-Aug-29 21:32N 31°40' W 010°59'10 9.5
2016-Aug-29 20:32N 31°32' W 011°05'10 9.8
2016-Aug-29 19:33N 31°23' W 011°10'10 9.7
2016-Aug-29 18:33N 31°15' W 011°16'1010.3
2016-Aug-29 17:33N 31°06' W 011°23'1010.2
2016-Aug-29 16:33N 30°58' W 011°29'1010.3
2016-Aug-29 15:33N 30°49' W 011°35'1010.5
2016-Aug-29 14:33N 30°40' W 011°42'1010.3
2016-Aug-29 13:33N 30°31' W 011°48'1010.1
2016-Aug-29 12:33N 30°23' W 011°54'2510.4
2016-Aug-29 10:09N 30°01' W 012°09'610.7
2016-Aug-29 09:33N 29°56' W 012°13'1110.8
2016-Aug-29 08:32N 29°47' W 012°20'1010.3
2016-Aug-29 07:33N 29°38' W 012°26'1010.0
2016-Aug-29 06:33N 29°30' W 012°32'1010.0
2016-Aug-29 05:33N 29°21' W 012°38'1010.3
2016-Aug-29 04:33N 29°12' W 012°44'1110.7
2016-Aug-29 03:33N 29°03' W 012°51'1110.6
2016-Aug-29 02:33N 28°54' W 012°57'1110.4
2016-Aug-29 01:32N 28°45' W 013°03'1010.1
2016-Aug-29 00:33N 28°37' W 013°09'1010.3
2016-Aug-28 23:33N 28°28' W 013°15'1010.3
2016-Aug-28 22:33N 28°19' W 013°22'1010.3
2016-Aug-28 21:33N 28°10' W 013°28'1010.1
2016-Aug-28 20:33N 28°02' W 013°34'1010.2
2016-Aug-28 19:33N 27°53' W 013°40'1010.5
2016-Aug-28 18:33N 27°45' W 013°47'1010.2
2016-Aug-28 17:33N 27°36' W 013°53'10 9.8
2016-Aug-28 16:33N 27°28' W 013°59'10 9.7
2016-Aug-28 15:33N 27°20' W 014°05'10 9.8
2016-Aug-28 14:33N 27°12' W 014°11'10610.6
2016-Aug-28 04:31N 25°44' W 015°18'5110.2
2016-Aug-27 23:33N 25°01' W 015°48'  

Dump ship's entire track history